Tiempo atmosférico en la estación meteorológica de Cartaya, Huelva (15 m.)



Fecha
DESCASC
Temp. máxima en grados centígrados (hora)
DESCASC
Temp. mínima en grados centígrados (hora)
DESCASC
Temp. media en grados centígrados
DESCASC
Racha de viento máxima en m/sg (hora)
DESCASC
Velocidad máxima media en intervalos de 10 minutos(hora)
DESCASC
Precipitaciones diarias en mm
DESCASC
Precipitaciones de 00:00 a 06:00 en mm
DESCASC
Precipitaciones de 06:00 a 12:00 en mm
DESCASC
Precipitaciones de 12:00 a 18:00 en mm
DESCASC
Precipitaciones de 18:00 a 24:00 en mm
DESCASC
22-04-2019 20.6 (12:10) 8.1 (06:00) 14.4 15 (20:30) 9.17 (20:10) 0 0 0 0 0
21-04-2019 23.3 (14:40) 10 (08:00) 16.6 9.72 (18:50) 5.56 (18:00) 0 0 0 0 0
20-04-2019 20.9 (19:10) 8.6 (05:00) 14.8 7.78 (22:00) 3.89 (20:10) 0 0 0 0 0
19-04-2019 18.4 (15:50) 7.5 (07:20) 12.9 8.06 (15:50) 4.17 (15:20) 0 0 0 0 0
18-04-2019 18.4 (16:50) 10.9 (00:00) 14.6 8.89 (15:10) 5.83 (15:10) 2.8 1.6 0 1.2 0
17-04-2019 19.1 (13:30) 9 (00:00) 14.1 14.17 (12:50) 6.39 (14:50) 0.4 0 0 0.4 0
16-04-2019 19.8 (15:00) 4.9 (00:00) 12.3 6.94 (17:50) 3.89 (16:30) 0 0 0 0 0
15-04-2019 24 (13:50) 8.4 (00:00) 16.2 10.83 (18:20) 6.94 (17:40) 0 0 0 0 0
14-04-2019 22.2 (14:30) 10.1 (00:00) 16.2 5.83 (01:20) 3.61 (18:00) 0 0 0 0 0
13-04-2019 19.8 (15:00) 9.7 (00:00) 14.7 9.72 (18:50) 5.28 (17:10) 0 0 0 0 0
12-04-2019 20.5 (14:30) 8.9 (00:00) 14.7 9.44 (18:50) 5.28 (17:10) 0 0 0 0 0
11-04-2019 22.4 (16:50) 8.3 (00:00) 15.3 10 (09:50) 5.83 (18:10) 0 0 0 0 0
10-04-2019 21.6 (17:50) 6.6 (00:00) 14.1 11.11 (18:00) 5.28 (18:00) 0 0 0 0 0
09-04-2019 19.4 (18:40) 6.4 (00:00) 12.9 11.39 (16:10) 6.67 (16:10) 0 0 0 0 0
08-04-2019 -- (--) -- (--) -- -- (--) -- (--) -- -- -- 0 0
07-04-2019 -- (--) -- (--) -- -- (--) -- (--) -- -- -- -- --
06-04-2019 -- (--) -- (--) -- -- (--) -- (--) -- 0 0.2 -- --
05-04-2019 16.4 (15:30) 10.1 (00:00) 13.3 16.39 (04:50) 7.5 (16:30) 10.6 9.2 0.4 0.2 0.8
04-04-2019 19.9 (16:10) 7 (00:00) 13.4 11.94 (18:10) 7.78 (18:30) 0 0 0 0 0
03-04-2019 21.8 (16:40) 9.5 (00:00) 15.6 10.28 (16:50) 5.28 (12:10) 0 0 0 0 0
02-04-2019 19.5 (16:40) 8.7 (00:00) 14.1 6.94 (18:50) 4.17 (19:00) 0 0 0 0 0
01-04-2019 19.7 (15:40) 10.2 (00:00) 15 8.61 (16:50) 5.83 (18:10) 0 0 0 0 0
31-03-2019 20.4 (13:50) 11 (00:00) 15.7 6.94 (14:30) 4.17 (14:30) 0 0 0 0 0
30-03-2019 20.9 (16:30) 8.3 (00:00) 14.6 8.89 (18:50) 4.44 (17:20) 0 0 0 0 0
29-03-2019 20.7 (14:20) 6.3 (00:00) 13.5 7.78 (16:30) 5 (16:30) 0 0 0 0 0
28-03-2019 20.8 (15:50) 7 (00:00) 13.9 8.33 (12:20) 3.89 (09:40) 0 0 0 0 0
27-03-2019 20.5 (16:10) 9.7 (00:00) 15.1 11.11 (20:50) 5.83 (19:20) 0 0 0 0 0
26-03-2019 24.1 (14:10) 10.8 (00:00) 17.5 8.61 (10:40) 5 (15:30) 0 0 0 0 0
25-03-2019 25.3 (16:50) 8.7 (00:00) 17 10.83 (13:50) 5.28 (13:50) 0 0 0 0 0

Gráficas

Temp. máximas Temp. mínimas Temp. medias Precipitaciones Rachas de viento máximas Velocidades máximas media en intervalos de 10 minutos

Datos horarios

Fecha y hora oficial Temperatura (ºC) Velocidad del viento (km/h) Dirección del viento Racha (km/h) Dirección de racha Precipitación (mm) Presión (hPa) Tendencia (hPa) Humedad (%)
2019-04-23 23:00:00 11.9 9 Noroeste 23 Noroeste 0 -- -- 80
2019-04-23 22:00:00 12.6 14 Noroeste 36 Noroeste 0 -- -- 75
2019-04-23 21:00:00 13.5 24 Noroeste 44 Noroeste 0 -- -- 71
2019-04-23 20:00:00 14.1 7 Norte 15 Nordeste 0 -- -- 80
2019-04-23 19:00:00 12.4 3 Sudeste 11 Nordeste 0.6 -- -- 90
2019-04-23 18:00:00 11.9 10 Nordeste 21 Norte 0.2 -- -- 85
2019-04-23 17:00:00 13.6 8 Oeste 22 Oeste 2.4 -- -- 76
2019-04-23 16:00:00 15.3 12 Oeste 28 Norte 0 -- -- 62
2019-04-23 15:00:00 15.7 13 Norte 38 Noroeste 0 -- -- 56
2019-04-23 14:00:00 15.8 16 Norte 42 Norte 0 -- -- 56
2019-04-23 13:00:00 14.8 22 Norte 57 Norte 0.2 -- -- 55
2019-04-23 12:00:00 15.5 15 Norte 32 Noroeste 0 -- -- 58
2019-04-23 11:00:00 14.1 14 Noroeste 28 Noroeste 0 -- -- 66
2019-04-23 10:00:00 12.6 10 Norte 21 Norte 0 -- -- 80
2019-04-23 09:00:00 10.8 8 Norte 14 Noroeste 0 -- -- 97
2019-04-23 08:00:00 10 6 Norte 12 Noroeste 0 -- -- 98
2019-04-23 07:00:00 10.5 4 Norte 14 Noroeste 0 -- -- 99
2019-04-23 06:00:00 10.9 6 Norte 15 Norte 0.4 -- -- 98
2019-04-23 05:00:00 11.1 6 Norte 25 Norte 1.2 -- -- 98
2019-04-23 04:00:00 11.7 11 Norte 31 Noroeste 3.4 -- -- 96
2019-04-23 03:00:00 15.6 16 Oeste 30 Oeste 0 -- -- 88
2019-04-23 02:00:00 15.2 15 Oeste 33 Oeste 0 -- -- 88
2019-04-23 01:00:00 15.4 18 Noroeste 34 Noroeste 0 -- -- 85
2019-04-23 00:00:00 15.5 20 Noroeste 41 Noroeste 0 -- -- 84
2019-04-22 23:00:00 15.5 23 Noroeste 45 Noroeste 0 -- -- 84
2019-04-22 22:00:00 15.7 27 Noroeste 48 Noroeste 0 -- -- 85
2019-04-22 21:00:00 15.9 30 Noroeste 54 Noroeste 0 -- -- 85
2019-04-22 20:00:00 16.4 30 Noroeste 51 Noroeste 0 -- -- 86
2019-04-22 19:00:00 17.9 28 Noroeste 52 Oeste 0 -- -- 81
2019-04-22 18:00:00 18.4 26 Oeste 41 Noroeste 0 -- -- 79
2019-04-22 17:00:00 20 21 Oeste 37 Oeste 0 -- -- 71
2019-04-22 16:00:00 19.6 12 Sudoeste 24 Sudoeste 0 -- -- 74
2019-04-22 15:00:00 19.2 16 Sudoeste 27 Oeste 0 -- -- 74
2019-04-22 14:00:00 19.6 12 Sudoeste 22 Sudoeste 0 -- -- 70
2019-04-22 13:00:00 19.7 11 Sudoeste 19 Sudoeste 0 -- -- 65
2019-04-22 12:00:00 20.2 6 Nordeste 18 Nordeste 0 -- -- 59
2019-04-22 11:00:00 17.7 8 Norte 18 Noroeste 0 -- -- 64
2019-04-22 10:00:00 14.5 5 Este 10 Este 0 -- -- 84
2019-04-22 09:00:00 11.9 0 Calma 11 Nordeste 0 -- -- 98
2019-04-22 08:00:00 10.7 6 Nordeste 10 Nordeste 0 -- -- 100
2019-04-22 07:00:00 9.8 5 Nordeste 8 Norte 0 -- -- 100
2019-04-22 06:00:00 8.1 4 Nordeste 6 Nordeste 0 -- -- 99
2019-04-22 05:00:00 9.5 4 Sudeste 9 Sudeste 0 -- -- 99
2019-04-22 04:00:00 9.7 3 Nordeste 6 Este 0 -- -- 98
2019-04-22 03:00:00 11.3 4 Nordeste 6 Nordeste 0 -- -- 99
2019-04-22 02:00:00 10.6 4 Nordeste 6 Este 0 -- -- 100
2019-04-22 01:00:00 10.7 4 Este 6 Nordeste 0 -- -- 97
2019-04-22 00:00:00 12.2 3 Nordeste 5 Norte 0 -- -- 94
2019-04-21 23:00:00 14.5 3 Noroeste 12 Noroeste 0 -- -- 90
2019-04-21 22:00:00 15.9 6 Oeste 12 Noroeste 0 -- -- 87
2019-04-21 21:00:00 16.7 5 Oeste 27 Oeste 0 -- -- 81
2019-04-21 20:00:00 17.2 14 Noroeste 24 Noroeste 0 -- -- 78
2019-04-21 19:00:00 17.8 17 Noroeste 35 Noroeste 0 -- -- 72
2019-04-21 18:00:00 19.2 20 Oeste 31 Oeste 0 -- -- 66
2019-04-21 17:00:00 19 17 Noroeste 26 Oeste 0 -- -- 66
2019-04-21 16:00:00 20 13 Noroeste 25 Noroeste 0 -- -- 59
2019-04-21 15:00:00 22.4 8 Este 27 Sudeste 0 -- -- 51
2019-04-21 14:00:00 22.5 11 Sudeste 24 Este 0 -- -- 42
2019-04-21 13:00:00 21 11 Este 26 Nordeste 0 -- -- 47
2019-04-21 12:00:00 19.1 10 Este 19 Este 0 -- -- 54
2019-04-21 11:00:00 17.5 10 Este 21 Este 0 -- -- 58
2019-04-21 10:00:00 16 11 Nordeste 18 Nordeste 0 -- -- 66
2019-04-21 09:00:00 12.3 7 Nordeste 13 Este 0 -- -- 82
2019-04-21 08:00:00 10 6 Nordeste 12 Nordeste 0 -- -- 88
2019-04-21 07:00:00 10.8 6 Nordeste 12 Nordeste 0 -- -- 86
2019-04-21 06:00:00 11.5 5 Nordeste 10 Nordeste 0 -- -- 82
2019-04-21 05:00:00 12.5 6 Nordeste 10 Nordeste 0 -- -- 78
2019-04-21 04:00:00 14.5 5 Este 14 Este 0 -- -- 69
2019-04-21 03:00:00 15.1 7 Este 15 Este 0 -- -- 68
2019-04-21 02:00:00 15.2 8 Este 17 Este 0 -- -- 70
2019-04-21 01:00:00 15.6 8 Este 20 Sudeste 0 -- -- 69
2019-04-21 00:00:00 15.9 10 Este 24 Sudeste 0 -- -- 67
2019-04-20 23:00:00 16.5 9 Este 22 Este 0 -- -- 64
2019-04-20 22:00:00 16.8 13 Este 28 Este 0 -- -- 64
2019-04-20 21:00:00 18.3 9 Este 25 Sudeste 0 -- -- 59
2019-04-20 20:00:00 20 12 Este 27 Este 0 -- -- 54
2019-04-20 19:00:00 20.7 10 Este 23 Sudeste 0 -- -- 52
2019-04-20 18:00:00 20.1 8 Este 20 Nordeste 0 -- -- 57
2019-04-20 17:00:00 19.9 8 Norte 18 Nordeste 0 -- -- 62
2019-04-20 16:00:00 19.2 8 Este 23 Nordeste 0 -- -- 59
2019-04-20 15:00:00 18.8 10 Este 26 Nordeste 0 -- -- 62
2019-04-20 14:00:00 18.3 10 Este 24 Este 0 -- -- 63
2019-04-20 13:00:00 17 9 Este 21 Este 0 -- -- 68
2019-04-20 12:00:00 16.3 10 Este 23 Este 0 -- -- 71
2019-04-20 11:00:00 13.6 7 Nordeste 14 Nordeste 0 -- -- 85
2019-04-20 10:00:00 11.5 3 Nordeste 6 Nordeste 0 -- -- 100
2019-04-20 09:00:00 10.2 3 Nordeste 11 Norte 0 -- -- 100
2019-04-20 08:00:00 9.3 4 Nordeste 10 Nordeste 0 -- -- 100
2019-04-20 07:00:00 9 5 Nordeste 9 Nordeste 0 -- -- 100
2019-04-20 06:00:00 9 5 Nordeste 11 Nordeste 0 -- -- 100
2019-04-20 05:00:00 8.6 4 Nordeste 7 Nordeste 0 -- -- 99
2019-04-20 04:00:00 9.4 3 Nordeste 6 Nordeste 0 -- -- 99
2019-04-20 03:00:00 10.5 3 Nordeste 9 Este 0 -- -- 98
2019-04-20 02:00:00 10.7 5 Nordeste 10 Nordeste 0 -- -- 98
2019-04-20 01:00:00 10.6 4 Nordeste 8 Norte 0 -- -- 96
2019-04-20 00:00:00 11.7 0 Calma 4 Nordeste 0 -- -- 93
2019-04-19 23:00:00 12.3 2 Este 8 Nordeste 0 -- -- 90
2019-04-19 22:00:00 13 5 Nordeste 12 Nordeste 0 -- -- 89
2019-04-19 21:00:00 14.2 7 Nordeste 14 Norte 0 -- -- 84
2019-04-19 20:00:00 16 5 Nordeste 14 Norte 0 -- -- 76
2019-04-19 19:00:00 17 6 Norte 14 Norte 0 -- -- 74
2019-04-19 18:00:00 16.5 9 Norte 17 Norte 0 -- -- 77
2019-04-19 17:00:00 16.9 8 Noroeste 18 Oeste 0 -- -- 73
2019-04-19 16:00:00 17.8 14 Oeste 29 Oeste 0 -- -- 71
2019-04-19 15:00:00 17.5 14 Oeste 21 Oeste 0 -- -- 73
2019-04-19 14:00:00 17 9 Oeste 18 Sudoeste 0 -- -- 71
2019-04-19 13:00:00 17.7 9 Oeste 15 Oeste 0 -- -- 70
2019-04-19 12:00:00 16.1 6 Nordeste 15 Sudeste 0 -- -- 78
2019-04-19 11:00:00 12.8 5 Este 13 Sudeste 0 -- -- 100
2019-04-19 10:00:00 10.8 3 Este 9 Este 0 -- -- 100
2019-04-19 09:00:00 9.5 5 Nordeste 11 Este 0 -- -- 100
2019-04-19 08:00:00 8 4 Nordeste 10 Este 0 -- -- 100
2019-04-19 07:00:00 7.8 3 Nordeste 6 Nordeste 0 -- -- 99
2019-04-19 06:00:00 8.8 4 Nordeste 6 Este 0 -- -- 98
2019-04-19 05:00:00 9.7 2 Nordeste 6 Nordeste 0 -- -- 98
2019-04-19 04:00:00 9.2 4 Nordeste 6 Nordeste 0 -- -- 98
2019-04-19 03:00:00 9 3 Este 6 Nordeste 0 -- -- 96
2019-04-19 02:00:00 9.7 3 Nordeste 10 Nordeste 0 -- -- 93
2019-04-19 01:00:00 10.7 5 Nordeste 9 Nordeste 0 -- -- 92
2019-04-19 00:00:00 11.5 4 Nordeste 12 Nordeste 0 -- -- 91
2019-04-18 23:00:00 11.7 4 Nordeste 6 Nordeste 0 -- -- 94
2019-04-18 22:00:00 12.3 4 Nordeste 5 Nordeste 0 -- -- 92
2019-04-18 21:00:00 15.2 0 Calma 5 Este 0 -- -- 82
2019-04-18 20:00:00 16.1 0 Calma 14 Noroeste 0 -- -- 79
2019-04-18 19:00:00 16.2 9 Oeste 17 Oeste 0 -- -- 68
2019-04-18 18:00:00 17.1 10 Oeste 16 Oeste 0 -- -- 68
2019-04-18 17:00:00 18.4 8 Oeste 18 Oeste 0 -- -- 61
2019-04-18 16:00:00 18.2 10 Noroeste 32 Oeste 0 -- -- 59
2019-04-18 15:00:00 16.8 18 Noroeste 31 Noroeste 0 -- -- 83
2019-04-18 14:00:00 16.5 15 Oeste 26 Oeste 0 -- -- 83
2019-04-18 13:00:00 16 8 Oeste 19 Oeste 1.2 -- -- 89
2019-04-18 12:00:00 16.6 8 Oeste 15 Sudoeste 0 -- -- 85
2019-04-18 11:00:00 15.2 6 Oeste 13 Sudoeste 0 -- -- 89
2019-04-18 10:00:00 14.4 3 Este 5 Este 0 -- -- 99
2019-04-18 09:00:00 12.3 0 Calma 5 Este 0 -- -- 100
2019-04-18 08:00:00 12.1 0 Calma 9 Sudeste 0 -- -- 99
2019-04-18 07:00:00 12.2 4 Este 13 Oeste 0 -- -- 98
2019-04-18 06:00:00 13.3 8 Noroeste 18 Oeste 1 -- -- 95
2019-04-18 05:00:00 13.1 4 Oeste 10 Oeste 0.6 -- -- 98
2019-04-18 04:00:00 13.2 3 Noroeste 7 Noroeste 0 -- -- 97
2019-04-18 03:00:00 14.1 2 Oeste 19 Oeste 0 -- -- 92
2019-04-18 02:00:00 13.4 8 Oeste 15 Oeste 0 -- -- 98
2019-04-18 01:00:00 13.2 0 Calma 10 Oeste 0 -- -- 90
2019-04-18 00:00:00 14.6 6 Oeste 19 Noroeste 0 -- -- 89
2019-04-17 23:00:00 15 10 Noroeste 21 Noroeste 0 -- -- 85
2019-04-17 22:00:00 15.3 14 Noroeste 25 Oeste 0 -- -- 82
2019-04-17 21:00:00 15.4 14 Noroeste 27 Oeste 0 -- -- 79
2019-04-17 20:00:00 15.7 8 Sudoeste 19 Sur 0 -- -- 78
2019-04-17 19:00:00 16 9 Sur 18 Sur 0 -- -- 75
2019-04-17 18:00:00 16.3 12 Oeste 21 Oeste 0 -- -- 70
2019-04-17 17:00:00 15.9 12 Oeste 29 Noroeste 0 -- -- 82
2019-04-17 16:00:00 15.4 17 Noroeste 32 Noroeste 0.2 -- -- 83
2019-04-17 15:00:00 14.8 18 Noroeste 45 Noroeste 0.2 -- -- 90
2019-04-17 14:00:00 17.9 20 Sudoeste 39 Sudoeste 0 -- -- 83
2019-04-17 13:00:00 18.3 19 Sudoeste 51 Sudoeste 0 -- -- 83
2019-04-17 12:00:00 17.7 20 Sudoeste 37 Sudoeste 0 -- -- 85
2019-04-17 11:00:00 17.2 21 Sudoeste 48 Sur 0 -- -- 87
2019-04-17 10:00:00 16.6 19 Sudoeste 36 Sudoeste 0 -- -- 89
2019-04-17 09:00:00 14.8 18 Sur 29 Sur 0 -- -- 100
2019-04-17 08:00:00 10.3 3 Este 8 Este 0 -- -- 99
2019-04-17 07:00:00 10.4 5 Este 11 Este 0 -- -- 100
2019-04-17 06:00:00 10.4 7 Este 11 Este 0 -- -- 100
2019-04-17 05:00:00 9.8 5 Nordeste 9 Este 0 -- -- 99
2019-04-17 04:00:00 9.6 5 Este 7 Este 0 -- -- 100
2019-04-17 03:00:00 9.2 3 Este 6 Este 0 -- -- 97
2019-04-17 02:00:00 9.5 4 Este 6 Nordeste 0 -- -- 96
2019-04-17 01:00:00 11.2 2 Norte 9 Oeste 0 -- -- 92
2019-04-17 00:00:00 14.4 4 Noroeste 16 Noroeste 0 -- -- 90
2019-04-16 23:00:00 14.9 8 Noroeste 13 Noroeste 0 -- -- 90
2019-04-16 22:00:00 15 7 Noroeste 13 Noroeste 0 -- -- 89
2019-04-16 21:00:00 16 7 Oeste 14 Oeste 0 -- -- 84
2019-04-16 20:00:00 17.4 9 Oeste 16 Oeste 0 -- -- 76
2019-04-16 19:00:00 18.3 12 Oeste 20 Oeste 0 -- -- 71
2019-04-16 18:00:00 18.9 14 Oeste 25 Oeste 0 -- -- 68
2019-04-16 17:00:00 19.4 12 Oeste 20 Oeste 0 -- -- 65
2019-04-16 16:00:00 19.5 12 Oeste 18 Oeste 0 -- -- 61
2019-04-16 15:00:00 19.8 9 Oeste 14 Oeste 0 -- -- 57
2019-04-16 14:00:00 18.6 6 Oeste 14 Sudoeste 0 -- -- 61
2019-04-16 13:00:00 17.7 7 Sudoeste 15 Sur 0 -- -- 72
2019-04-16 12:00:00 17 10 Sur 18 Sur 0 -- -- 72
2019-04-16 11:00:00 15.9 5 Sur 12 Sur 0 -- -- 76
2019-04-16 10:00:00 12.9 5 Este 10 Este 0 -- -- 92
2019-04-16 09:00:00 8.1 4 Nordeste 7 Nordeste 0 -- -- 100
2019-04-16 08:00:00 5 0 Calma 5 Este 0 -- -- 97
2019-04-16 07:00:00 6.4 3 Este 5 Nordeste 0 -- -- 97
2019-04-16 06:00:00 7.5 2 Este 7 Norte 0 -- -- 97
2019-04-16 05:00:00 9.2 0 Calma 9 Nordeste 0 -- -- 93
2019-04-16 04:00:00 10.7 3 Nordeste 13 Nordeste 0 -- -- 93
2019-04-16 03:00:00 11.4 7 Norte 14 Norte 0 -- -- 92
2019-04-16 02:00:00 12.2 6 Norte 19 Noroeste 0 -- -- 88
2019-04-16 01:00:00 13.2 9 Norte 19 Norte 0 -- -- 83
2019-04-16 00:00:00 13.9 6 Norte 16 Norte 0 -- -- 78
2019-04-15 23:00:00 15.4 9 Norte 22 Norte 0 -- -- 70
2019-04-15 22:00:00 16.7 8 Norte 21 Norte 0 -- -- 63
2019-04-15 21:00:00 18.3 9 Norte 24 Oeste 0 -- -- 59
2019-04-15 20:00:00 18 17 Oeste 35 Noroeste 0 -- -- 77
2019-04-15 19:00:00 17.8 20 Noroeste 39 Noroeste 0 -- -- 78
2019-04-15 18:00:00 19.2 22 Noroeste 36 Oeste 0 -- -- 77
2019-04-15 17:00:00 19.1 21 Oeste 35 Oeste 0 -- -- 75
2019-04-15 16:00:00 20.2 21 Oeste 36 Oeste 0 -- -- 72
2019-04-15 15:00:00 20.6 15 Oeste 28 Oeste 0 -- -- 70
2019-04-15 14:00:00 24 13 Norte 29 Norte 0 -- -- 49
2019-04-15 13:00:00 22.2 13 Norte 28 Norte 0 -- -- 48
2019-04-15 12:00:00 20.8 12 Norte 29 Noroeste 0 -- -- 66
2019-04-15 11:00:00 18.8 8 Noroeste 16 Noroeste 0 -- -- 76
2019-04-15 10:00:00 16.3 5 Nordeste 15 Norte 0 -- -- 85
2019-04-15 09:00:00 12 5 Norte 9 Norte 0 -- -- 100
2019-04-15 08:00:00 9.9 6 Norte 12 Norte 0 -- -- 100
2019-04-15 07:00:00 9.9 5 Nordeste 11 Norte 0 -- -- 98
2019-04-15 06:00:00 8.5 3 Norte 5 Norte 0 -- -- 96
2019-04-15 05:00:00 9.2 4 Nordeste 7 Nordeste 0 -- -- 95
2019-04-15 04:00:00 10.5 5 Nordeste 8 Nordeste 0 -- -- 95
2019-04-15 03:00:00 11.1 5 Nordeste 8 Nordeste 0 -- -- 92
2019-04-15 02:00:00 11.8 5 Este 8 Este 0 -- -- 91
2019-04-15 01:00:00 12.2 5 Este 6 Este 0 -- -- 89
2019-04-15 00:00:00 13.6 4 Nordeste 6 Nordeste 0 -- -- 85
2019-04-14 23:00:00 15.9 4 Norte 7 Norte 0 -- -- 76
2019-04-14 22:00:00 17.2 4 Norte 6 Norte 0 -- -- 73
2019-04-14 21:00:00 19.4 3 Noroeste 10 Noroeste 0 -- -- 63
2019-04-14 20:00:00 20.2 7 Noroeste 12 Noroeste 0 -- -- 59
2019-04-14 19:00:00 20.7 8 Noroeste 17 Oeste 0 -- -- 58
2019-04-14 18:00:00 21.1 13 Oeste 19 Oeste 0 -- -- 60
2019-04-14 17:00:00 21.9 10 Oeste 19 Oeste 0 -- -- 58
2019-04-14 16:00:00 21.3 11 Oeste 18 Oeste 0 -- -- 63
2019-04-14 15:00:00 21.5 9 Oeste 15 Oeste 0 -- -- 62
2019-04-14 14:00:00 21.6 8 Sudoeste 15 Sudoeste 0 -- -- 62
2019-04-14 13:00:00 20.7 9 Sudoeste 14 Sudoeste 0 -- -- 67
2019-04-14 12:00:00 19.9 6 Sudoeste 11 Sudoeste 0 -- -- 68
2019-04-14 11:00:00 18.4 6 Sudoeste 12 Sudeste 0 -- -- 74
2019-04-14 10:00:00 16.7 4 Este 13 Nordeste 0 -- -- 81
2019-04-14 09:00:00 12.1 4 Nordeste 8 Norte 0 -- -- 98
2019-04-14 08:00:00 10.4 3 Nordeste 5 Nordeste 0 -- -- 95
2019-04-14 07:00:00 11.9 2 Este 6 Norte 0 -- -- 93
2019-04-14 06:00:00 13 4 Nordeste 10 Norte 0 -- -- 91
2019-04-14 05:00:00 13.8 6 Nordeste 15 Nordeste 0 -- -- 88
2019-04-14 04:00:00 14.2 7 Nordeste 16 Nordeste 0 -- -- 88
2019-04-14 03:00:00 14.6 8 Nordeste 17 Nordeste 0 -- -- 89
2019-04-14 02:00:00 15.1 8 Norte 21 Norte 0 -- -- 86
2019-04-14 01:00:00 15.7 8 Norte 18 Norte 0 -- -- 82
2019-04-14 00:00:00 15.2 8 Norte 15 Norte 0 -- -- 78
2019-04-13 23:00:00 15.7 6 Noroeste 22 Noroeste 0 -- -- 91
2019-04-13 22:00:00 16 11 Noroeste 22 Noroeste 0 -- -- 82
2019-04-13 21:00:00 16.6 14 Noroeste 25 Oeste 0 -- -- 71
2019-04-13 20:00:00 18.2 13 Noroeste 31 Noroeste 0 -- -- 62
2019-04-13 19:00:00 19.2 18 Noroeste 35 Oeste 0 -- -- 63
2019-04-13 18:00:00 19.5 16 Oeste 28 Noroeste 0 -- -- 66
2019-04-13 17:00:00 19.5 18 Oeste 29 Oeste 0 -- -- 67
2019-04-13 16:00:00 19.3 15 Oeste 23 Oeste 0 -- -- 64
2019-04-13 15:00:00 19.8 12 Oeste 21 Sudoeste 0 -- -- 56
2019-04-13 14:00:00 19.1 9 Sudoeste 18 Sudoeste 0 -- -- 56
2019-04-13 13:00:00 17.6 9 Sudoeste 15 Oeste 0 -- -- 69
2019-04-13 12:00:00 17 9 Sudoeste 20 Sudoeste 0 -- -- 69
2019-04-13 11:00:00 18.3 4 Este 12 Este 0 -- -- 62
2019-04-13 10:00:00 14.7 5 Nordeste 15 Norte 0 -- -- 73
2019-04-13 09:00:00 10.5 4 Nordeste 9 Norte 0 -- -- 90
2019-04-13 08:00:00 10 6 Nordeste 14 Nordeste 0 -- -- 88
2019-04-13 07:00:00 10.4 8 Nordeste 15 Nordeste 0 -- -- 87
2019-04-13 06:00:00 10.8 10 Nordeste 17 Nordeste 0 -- -- 84
2019-04-13 05:00:00 11.1 8 Nordeste 21 Norte 0 -- -- 81
2019-04-13 04:00:00 11.6 9 Norte 22 Norte 0 -- -- 79
2019-04-13 03:00:00 12.4 10 Norte 22 Norte 0 -- -- 75
2019-04-13 02:00:00 13.1 12 Norte 25 Norte 0 -- -- 74
2019-04-13 01:00:00 13.7 9 Norte 18 Norte 0 -- -- 74
2019-04-13 00:00:00 14.6 9 Norte 22 Noroeste 0 -- -- 70
2019-04-12 23:00:00 15.7 9 Noroeste 23 Noroeste 0 -- -- 67
2019-04-12 22:00:00 15.9 11 Noroeste 23 Noroeste 0 -- -- 74
2019-04-12 21:00:00 16.4 12 Noroeste 26 Noroeste 0 -- -- 69
2019-04-12 20:00:00 17.7 16 Noroeste 30 Oeste 0 -- -- 66
2019-04-12 19:00:00 18.3 16 Noroeste 34 Noroeste 0 -- -- 69
2019-04-12 18:00:00 18.7 18 Oeste 30 Oeste 0 -- -- 71
2019-04-12 17:00:00 18.8 17 Oeste 26 Oeste 0 -- -- 68
2019-04-12 16:00:00 19.3 13 Oeste 21 Sudoeste 0 -- -- 62
2019-04-12 15:00:00 20.1 11 Sudoeste 18 Oeste 0 -- -- 49
2019-04-12 14:00:00 20 8 Oeste 15 Sudoeste 0 -- -- 48
2019-04-12 13:00:00 19.1 9 Oeste 14 Sudoeste 0 -- -- 55
2019-04-12 12:00:00 18.8 3 Sudoeste 15 Nordeste 0 -- -- 58
2019-04-12 11:00:00 15.4 5 Nordeste 18 Nordeste 0 -- -- 68
2019-04-12 10:00:00 12.6 6 Nordeste 19 Nordeste 0 -- -- 79
2019-04-12 09:00:00 9.6 7 Nordeste 26 Norte 0 -- -- 90
2019-04-12 08:00:00 8.9 11 Norte 23 Norte 0 -- -- 92
2019-04-12 07:00:00 9.2 10 Nordeste 20 Nordeste 0 -- -- 91
2019-04-12 06:00:00 9.7 10 Norte 19 Nordeste 0 -- -- 89
2019-04-12 05:00:00 10.1 9 Nordeste 17 Norte 0 -- -- 87
2019-04-12 04:00:00 10.8 9 Nordeste 16 Nordeste 0 -- -- 85
2019-04-12 03:00:00 11.6 8 Nordeste 19 Norte 0 -- -- 81
2019-04-12 02:00:00 12.5 8 Norte 21 Norte 0 -- -- 78
2019-04-12 01:00:00 13.3 10 Norte 24 Norte 0 -- -- 77
2019-04-12 00:00:00 14.1 10 Norte 22 Norte 0 -- -- 75
2019-04-11 23:00:00 15 13 Norte 23 Norte 0 -- -- 73
2019-04-11 22:00:00 14 5 Norte 13 Noroeste 0 -- -- 86
2019-04-11 21:00:00 16.1 9 Noroeste 28 Noroeste 0 -- -- 82
2019-04-11 20:00:00 16.9 15 Noroeste 28 Oeste 0 -- -- 78
2019-04-11 19:00:00 18 19 Noroeste 35 Noroeste 0 -- -- 72
2019-04-11 18:00:00 18.5 18 Noroeste 33 Oeste 0 -- -- 69
2019-04-11 17:00:00 20.6 16 Noroeste 28 Norte 0 -- -- 60
2019-04-11 16:00:00 21.7 11 Norte 27 Nordeste 0 -- -- 43
2019-04-11 15:00:00 20.6 12 Nordeste 33 Nordeste 0 -- -- 47
2019-04-11 14:00:00 20 14 Norte 24 Nordeste 0 -- -- 49
2019-04-11 13:00:00 18.6 11 Norte 21 Norte 0 -- -- 57
2019-04-11 12:00:00 16.2 11 Norte 24 Norte 0 -- -- 65
2019-04-11 11:00:00 13.9 11 Nordeste 27 Nordeste 0 -- -- 76
2019-04-11 10:00:00 11.7 11 Nordeste 36 Nordeste 0 -- -- 83
2019-04-11 09:00:00 9.2 12 Nordeste 24 Nordeste 0 -- -- 94
2019-04-11 08:00:00 8.4 10 Nordeste 22 Nordeste 0 -- -- 95
2019-04-11 07:00:00 8.5 10 Norte 19 Nordeste 0 -- -- 94
2019-04-11 06:00:00 9 9 Nordeste 18 Nordeste 0 -- -- 92
2019-04-11 05:00:00 9.5 8 Nordeste 25 Norte 0 -- -- 89
2019-04-11 04:00:00 10 13 Nordeste 26 Norte 0 -- -- 86
2019-04-11 03:00:00 10.7 10 Nordeste 23 Norte 0 -- -- 84
2019-04-11 02:00:00 11.4 7 Norte 19 Norte 0 -- -- 84
2019-04-11 01:00:00 12.2 9 Norte 15 Norte 0 -- -- 83
2019-04-11 00:00:00 13.4 8 Norte 17 Norte 0 -- -- 80
2019-04-10 23:00:00 14.2 7 Norte 16 Norte 0 -- -- 75
2019-04-10 22:00:00 15.1 7 Norte 18 Noroeste 0 -- -- 69
2019-04-10 21:00:00 16.9 10 Norte 30 Nordeste 0 -- -- 65
2019-04-10 20:00:00 19.9 13 Norte 29 Noroeste 0 -- -- 51
2019-04-10 19:00:00 19.6 14 Nordeste 37 Norte 0 -- -- 48
2019-04-10 18:00:00 21.1 19 Norte 40 Norte 0 -- -- 42
2019-04-10 17:00:00 20.6 15 Nordeste 40 Norte 0 -- -- 42
2019-04-10 16:00:00 21.1 17 Norte 39 Norte 0 -- -- 44
2019-04-10 15:00:00 19.2 15 Nordeste 35 Norte 0 -- -- 53
2019-04-10 14:00:00 18.2 14 Norte 30 Norte 0 -- -- 59
2019-04-10 13:00:00 16.6 10 Norte 28 Norte 0 -- -- 67
2019-04-10 12:00:00 15.3 11 Norte 26 Norte 0 -- -- 72
2019-04-10 11:00:00 13.7 10 Nordeste 23 Norte 0 -- -- 78
2019-04-10 10:00:00 11.3 7 Norte 15 Norte 0 -- -- 94
2019-04-10 09:00:00 8.1 5 Norte 10 Norte 0 -- -- 100
2019-04-10 08:00:00 7 3 Norte 8 Norte 0 -- -- 98
2019-04-10 07:00:00 7.4 4 Norte 9 Norte 0 -- -- 98
2019-04-10 06:00:00 7.3 3 Norte 7 Noroeste 0 -- -- 96
2019-04-10 05:00:00 8.4 4 Norte 10 Norte 0 -- -- 96
2019-04-10 04:00:00 9.2 5 Norte 17 Norte 0 -- -- 93
2019-04-10 03:00:00 10.3 9 Norte 22 Norte 0 -- -- 91
2019-04-10 02:00:00 11.1 12 Nordeste 26 Norte 0 -- -- 87
2019-04-10 01:00:00 11.6 10 Norte 22 Nordeste 0 -- -- 84
2019-04-10 00:00:00 12.4 8 Norte 24 Nordeste 0 -- -- 79
2019-04-09 23:00:00 13.3 10 Norte 17 Nordeste 0 -- -- 72
2019-04-09 22:00:00 14.5 8 Norte 20 Norte 0 -- -- 68
2019-04-09 21:00:00 15.9 8 Norte 31 Norte 0 -- -- 59
2019-04-09 20:00:00 18.2 14 Norte 33 Norte 0 -- -- 52
2019-04-09 19:00:00 19.3 15 Norte 38 Norte 0 -- -- 50
2019-04-09 18:00:00 17.2 19 Noroeste 31 Noroeste 0 -- -- 70
2019-04-09 17:00:00 17.4 22 Noroeste 41 Noroeste 0 -- -- 71
2019-04-09 16:00:00 17.1 22 Noroeste 36 Noroeste 0 -- -- 73
2019-04-09 15:00:00 16.2 14 Oeste 35 Oeste 0 -- -- 78
2019-04-09 14:00:00 17.4 17 Oeste 31 Noroeste 0 -- -- 71
2019-04-09 13:00:00 16.9 16 Oeste 29 Oeste 0 -- -- 70
2019-04-09 12:00:00 16.4 10 Norte 24 Norte 0 -- -- 67
2019-04-09 11:00:00 14.8 9 Norte 18 Noroeste 0 -- -- 77
2019-04-09 10:00:00 12.8 8 Noroeste 13 Noroeste 0 -- -- 88
2019-04-09 09:00:00 8.1 6 Norte 10 Norte 0 -- -- 100
2019-04-09 08:00:00 7.3 3 Nordeste 9 Norte 0 -- -- 98
2019-04-09 07:00:00 8.5 5 Noroeste 9 Noroeste 0 -- -- 100
2019-04-09 06:00:00 6.9 5 Norte 7 Noroeste 0 -- -- 99
2019-04-09 05:00:00 6.7 3 Norte 6 Norte 0 -- -- 98
2019-04-09 04:00:00 7.1 5 Norte 10 Noroeste 0 -- -- 96
2019-04-09 03:00:00 8.1 4 Norte 10 Norte 0 -- -- 94
2019-04-09 02:00:00 8 4 Nordeste 9 Norte 0 -- -- 91
2019-04-09 01:00:00 9.6 5 Norte 13 Norte 0 -- -- 87
2019-04-09 00:00:00 10.8 6 Norte 10 Norte 0 -- -- 82
2019-04-08 23:00:00 12.6 6 Norte 14 Norte 0 -- -- 73
2019-04-08 22:00:00 14 9 Norte 21 Norte 0 -- -- 68
2019-04-08 21:00:00 15.5 8 Norte 19 Nordeste 0 -- -- 63
2019-04-08 20:00:00 16.7 9 Norte 35 Noroeste 0 -- -- 72
2019-04-08 19:00:00 16.1 21 Noroeste 40 Noroeste 0 -- -- 83
2019-04-08 18:00:00 16.9 23 Noroeste 36 Noroeste 0 -- -- 82
2019-04-08 17:00:00 17.3 23 Noroeste 39 Noroeste 0 -- -- 83
2019-04-08 16:00:00 15.8 14 Noroeste 26 Noroeste 0 -- -- 88
2019-04-08 15:00:00 15.2 12 Noroeste 23 Oeste 0 -- -- 93
2019-04-08 14:00:00 16.1 13 Oeste 21 Oeste 0 -- -- 88
2019-04-08 13:00:00 17.6 9 Norte 17 Nordeste 0 -- -- 79
2019-04-08 12:00:00 16.3 8 Norte -- -- -- -- -- 89
2019-04-08 11:00:00 -- -- -- -- -- -- -- -- --
2019-04-08 10:00:00 -- -- -- -- -- -- -- -- --
2019-04-08 09:00:00 -- -- -- -- -- -- -- -- --
2019-04-08 08:00:00 -- -- -- -- -- -- -- -- --
2019-04-08 07:00:00 -- -- -- -- -- -- -- -- --
2019-04-08 06:00:00 -- -- -- -- -- -- -- -- --
2019-04-08 05:00:00 -- -- -- -- -- -- -- -- --
2019-04-08 04:00:00 -- -- -- -- -- -- -- -- --
2019-04-08 03:00:00 -- -- -- -- -- -- -- -- --
2019-04-08 02:00:00 -- -- -- -- -- -- -- -- --
2019-04-08 01:00:00 -- -- -- -- -- -- -- -- --
2019-04-08 00:00:00 -- -- -- -- -- -- -- -- --
2019-04-07 23:00:00 -- -- -- -- -- -- -- -- --
2019-04-07 22:00:00 -- -- -- -- -- -- -- -- --
2019-04-07 21:00:00 -- -- -- -- -- -- -- -- --
2019-04-07 20:00:00 -- -- -- -- -- -- -- -- --
2019-04-07 19:00:00 -- -- -- -- -- -- -- -- --
2019-04-07 18:00:00 -- -- -- -- -- -- -- -- --
2019-04-07 17:00:00 -- -- -- -- -- -- -- -- --
2019-04-07 16:00:00 -- -- -- -- -- -- -- -- --
2019-04-07 15:00:00 -- -- -- -- -- -- -- -- --
2019-04-07 14:00:00 -- -- -- -- -- -- -- -- --
2019-04-07 13:00:00 -- -- -- -- -- -- -- -- --
2019-04-07 12:00:00 -- -- -- -- -- -- -- -- --
2019-04-07 11:00:00 -- -- -- -- -- -- -- -- --
2019-04-07 10:00:00 -- -- -- -- -- -- -- -- --
2019-04-07 09:00:00 -- -- -- -- -- -- -- -- --
2019-04-07 08:00:00 -- -- -- -- -- -- -- -- --
2019-04-07 07:00:00 -- -- -- -- -- -- -- -- --
2019-04-07 06:00:00 -- -- -- -- -- -- -- -- --
2019-04-07 05:00:00 -- -- -- -- -- -- -- -- --
2019-04-07 04:00:00 -- -- -- -- -- -- -- -- --
2019-04-07 03:00:00 -- -- -- -- -- -- -- -- --
2019-04-07 02:00:00 -- -- -- -- -- -- -- -- --
2019-04-07 01:00:00 -- -- -- -- -- -- -- -- --
2019-04-07 00:00:00 -- -- -- -- -- -- -- -- --
2019-04-06 23:00:00 -- -- -- -- -- -- -- -- --
2019-04-06 22:00:00 -- -- -- -- -- -- -- -- --
2019-04-06 21:00:00 -- -- -- -- -- -- -- -- --
2019-04-06 20:00:00 -- -- -- -- -- -- -- -- --
2019-04-06 19:00:00 -- -- -- -- -- -- -- -- --
2019-04-06 18:00:00 -- -- -- -- -- -- -- -- --
2019-04-06 17:00:00 -- -- -- -- -- -- -- -- --
2019-04-06 16:00:00 -- -- -- -- -- -- -- -- --
2019-04-06 15:00:00 -- -- -- -- -- -- -- -- --
2019-04-06 14:00:00 -- -- -- -- -- -- -- -- --
2019-04-06 13:00:00 15.3 19 Oeste 32 Noroeste 0 -- -- 71
2019-04-06 12:00:00 14.6 17 Noroeste 27 Noroeste 0 -- -- 70
2019-04-06 11:00:00 13.5 15 Noroeste 23 Noroeste 0 -- -- 70
2019-04-06 10:00:00 11.6 8 Noroeste 15 Norte 0.2 -- -- 80
2019-04-06 09:00:00 8.6 3 Norte 6 Noroeste 0 -- -- 96
2019-04-06 08:00:00 8.3 3 Norte 11 Norte 0 -- -- 94
2019-04-06 07:00:00 9.6 4 Norte 13 Noroeste 0 -- -- 89
2019-04-06 06:00:00 9.3 6 Norte 14 Noroeste 0 -- -- 86
2019-04-06 05:00:00 9.9 6 Norte 17 Noroeste 0 -- -- 84
2019-04-06 04:00:00 10.6 11 Noroeste 22 Noroeste 0 -- -- 80
2019-04-06 03:00:00 10.4 11 Noroeste 24 Noroeste 0 -- -- 79
2019-04-06 02:00:00 10.7 10 Noroeste 21 Noroeste 0 -- -- 79
2019-04-06 01:00:00 11 13 Noroeste 22 Noroeste 0 -- -- 80
2019-04-06 00:00:00 11.2 12 Noroeste 22 Noroeste 0 -- -- 79
2019-04-05 23:00:00 10.4 10 Noroeste 24 Noroeste 0 -- -- 77
2019-04-05 22:00:00 10.5 9 Norte 24 Noroeste 0 -- -- 74
2019-04-05 21:00:00 10.9 9 Norte 27 Norte 0 -- -- 76
2019-04-05 20:00:00 10.9 18 Norte 37 Noroeste 0.6 -- -- 82
2019-04-05 19:00:00 14.9 14 Noroeste 33 Norte 0.2 -- -- 58
2019-04-05 18:00:00 12.9 25 Noroeste 50 Oeste 0 -- -- 74
2019-04-05 17:00:00 14.1 15 Noroeste 41 Noroeste 0.2 -- -- 66
2019-04-05 16:00:00 16.1 17 Noroeste 48 Noroeste 0 -- -- 44
2019-04-05 15:00:00 15.3 19 Norte 41 Noroeste 0 -- -- 49
2019-04-05 14:00:00 14.2 14 Norte 38 Noroeste 0 -- -- 63
2019-04-05 13:00:00 14.1 18 Norte 39 Noroeste 0 -- -- 58
2019-04-05 12:00:00 12.9 12 Norte 30 Norte 0 -- -- 71
2019-04-05 11:00:00 10.9 13 Norte 30 Norte 0.2 -- -- 83
2019-04-05 10:00:00 11.2 17 Norte 40 Nordeste 0 -- -- 85
2019-04-05 09:00:00 11.2 10 Noroeste 21 Noroeste 0 -- -- 95
2019-04-05 08:00:00 10.8 4 Noroeste 15 Noroeste 0.2 -- -- 95
2019-04-05 07:00:00 11.6 7 Noroeste 18 Noroeste 0 -- -- 93
2019-04-05 06:00:00 11.8 10 Noroeste 23 Noroeste 1.2 -- -- 93
2019-04-05 05:00:00 12 22 Noroeste 59 Oeste 5.6 -- -- 93
2019-04-05 04:00:00 13 19 Oeste 44 Oeste 2.2 -- -- 90
2019-04-05 03:00:00 12.6 14 Noroeste 28 Noroeste 0.2 -- -- 89
2019-04-05 02:00:00 11.3 7 Noroeste 19 Norte 0 -- -- 93
2019-04-05 01:00:00 12.2 11 Noroeste 25 Noroeste 0 -- -- 78
2019-04-05 00:00:00 11.8 6 Noroeste 15 Norte 0 -- -- 62
2019-04-04 23:00:00 12.2 7 Noroeste 23 Noroeste 0 -- -- 59
2019-04-04 22:00:00 13.3 10 Norte 29 Noroeste 0 -- -- 56
2019-04-04 21:00:00 15.1 14 Norte 30 Oeste 0 -- -- 48
2019-04-04 20:00:00 16.4 21 Oeste 41 Oeste 0 -- -- 64
2019-04-04 19:00:00 16.8 24 Oeste 43 Oeste 0 -- -- 54
2019-04-04 18:00:00 16.7 27 Oeste 41 Oeste 0 -- -- 53
2019-04-04 17:00:00 17.3 24 Oeste 37 Oeste 0 -- -- 47
2019-04-04 16:00:00 19.6 17 Noroeste 32 Noroeste 0 -- -- 31
2019-04-04 15:00:00 18.9 13 Norte 32 Noroeste 0 -- -- 32
2019-04-04 14:00:00 17.9 10 Nordeste 22 Nordeste 0 -- -- 33
2019-04-04 13:00:00 16.2 10 Nordeste 24 Norte 0 -- -- 37
2019-04-04 12:00:00 14.4 11 Nordeste 28 Norte 0 -- -- 44
2019-04-04 11:00:00 12 16 Nordeste 30 Nordeste 0 -- -- 56
2019-04-04 10:00:00 9.8 13 Norte 31 Norte 0 -- -- 70
2019-04-04 09:00:00 7.4 14 Norte 30 Nordeste 0 -- -- 80
2019-04-04 08:00:00 7 8 Nordeste 20 Nordeste 0 -- -- 81
2019-04-04 07:00:00 7.5 11 Nordeste 26 Norte 0 -- -- 79
2019-04-04 06:00:00 7.8 11 Nordeste 24 Norte 0 -- -- 77
2019-04-04 05:00:00 8.2 13 Nordeste 29 Nordeste 0 -- -- 74
2019-04-04 04:00:00 8.7 11 Nordeste 24 Norte 0 -- -- 71
2019-04-04 03:00:00 9.5 11 Norte 24 Norte 0 -- -- 68
2019-04-04 02:00:00 10.6 9 Nordeste 23 Nordeste 0 -- -- 65
2019-04-04 01:00:00 11.7 9 Norte 23 Norte 0 -- -- 59
2019-04-04 00:00:00 12.3 8 Norte 15 Norte 0 -- -- 56
2019-04-03 23:00:00 13.8 6 Norte 18 Nordeste 0 -- -- 53
2019-04-03 22:00:00 15 9 Norte 21 Nordeste 0 -- -- 49
2019-04-03 21:00:00 16.5 9 Nordeste 27 Norte 0 -- -- 46
2019-04-03 20:00:00 18.8 12 Norte 28 Norte 0 -- -- 41
2019-04-03 19:00:00 19.8 17 Norte 34 Norte 0 -- -- 38
2019-04-03 18:00:00 20.9 17 Norte 34 Norte 0 -- -- 37
2019-04-03 17:00:00 21.8 15 Norte 37 Norte 0 -- -- 36
2019-04-03 16:00:00 21.4 13 Norte 31 Noroeste 0 -- -- 38
2019-04-03 15:00:00 21.3 13 Norte 29 Norte 0 -- -- 41
2019-04-03 14:00:00 19.9 14 Norte 31 Nordeste 0 -- -- 45
2019-04-03 13:00:00 18.3 13 Nordeste 33 Norte 0 -- -- 50
2019-04-03 12:00:00 17 14 Nordeste 33 Nordeste 0 -- -- 56
2019-04-03 11:00:00 14.7 17 Nordeste 33 Nordeste 0 -- -- 62
2019-04-03 10:00:00 12.1 13 Norte 26 Norte 0 -- -- 80
2019-04-03 09:00:00 9.7 10 Norte 21 Nordeste 0 -- -- 98
2019-04-03 08:00:00 9.7 11 Norte 19 Norte 0 -- -- 98
2019-04-03 07:00:00 10.2 9 Nordeste 18 Norte 0 -- -- 98
2019-04-03 06:00:00 10.6 9 Norte 21 Norte 0 -- -- 97
2019-04-03 05:00:00 10.8 9 Norte 19 Norte 0 -- -- 96
2019-04-03 04:00:00 11.2 9 Norte 16 Norte 0 -- -- 94
2019-04-03 03:00:00 11.3 8 Norte 15 Norte 0 -- -- 93
2019-04-03 02:00:00 11.7 6 Norte 15 Norte 0 -- -- 92
2019-04-03 01:00:00 12.7 6 Norte 12 Norte 0 -- -- 96
2019-04-03 00:00:00 14.6 3 Norte 16 Noroeste 0 -- -- 89
2019-04-02 23:00:00 16.1 8 Noroeste 21 Noroeste 0 -- -- 89
2019-04-02 22:00:00 16.1 10 Noroeste 21 Noroeste 0 -- -- 87
2019-04-02 21:00:00 16.4 9 Noroeste 23 Noroeste 0 -- -- 79
2019-04-02 20:00:00 17.7 15 Noroeste 24 Noroeste 0 -- -- 77
2019-04-02 19:00:00 18.3 15 Oeste 25 Noroeste 0 -- -- 78
2019-04-02 18:00:00 19.2 14 Oeste 21 Oeste 0 -- -- 74
2019-04-02 17:00:00 19.4 14 Oeste 21 Oeste 0 -- -- 73
2019-04-02 16:00:00 19.2 13 Oeste 20 Oeste 0 -- -- 71
2019-04-02 15:00:00 19 10 Oeste 24 Oeste 0 -- -- 72
2019-04-02 14:00:00 18.6 10 Oeste 21 Oeste 0 -- -- 74
2019-04-02 13:00:00 18.3 6 Sudeste 14 Sur 0 -- -- 72
2019-04-02 12:00:00 16.8 6 Sudeste 18 Sudeste 0 -- -- 80
2019-04-02 11:00:00 13.7 5 Nordeste 13 Este 0 -- -- 99
2019-04-02 10:00:00 11.6 4 Norte 10 Nordeste 0 -- -- 100
2019-04-02 09:00:00 9 6 Nordeste 11 Nordeste 0 -- -- 100
2019-04-02 08:00:00 8.8 6 Nordeste 11 Nordeste 0 -- -- 100
2019-04-02 07:00:00 9.4 5 Nordeste 12 Nordeste 0 -- -- 100
2019-04-02 06:00:00 9.3 6 Este 10 Nordeste 0 -- -- 100
2019-04-02 05:00:00 9.1 4 Nordeste 11 Nordeste 0 -- -- 99
2019-04-02 04:00:00 8.9 4 Nordeste 7 Nordeste 0 -- -- 98
2019-04-02 03:00:00 9.1 4 Nordeste 8 Nordeste 0 -- -- 98
2019-04-02 02:00:00 10.1 5 Nordeste 8 Nordeste 0 -- -- 96
2019-04-02 01:00:00 10.8 5 Nordeste 9 Este 0 -- -- 94
2019-04-02 00:00:00 12 6 Este 10 Este 0 -- -- 93
2019-04-01 23:00:00 14.6 4 Noroeste 14 Oeste 0 -- -- 83
2019-04-01 22:00:00 16 6 Oeste 22 Oeste 0 -- -- 85
2019-04-01 21:00:00 16.3 11 Oeste 23 Oeste 0 -- -- 84
2019-04-01 20:00:00 17.2 15 Oeste 25 Oeste 0 -- -- 78
2019-04-01 19:00:00 18.1 15 Oeste 31 Oeste 0 -- -- 71
2019-04-01 18:00:00 18.7 19 Oeste 30 Oeste 0 -- -- 70
2019-04-01 17:00:00 19.2 18 Oeste 31 Oeste 0 -- -- 72
2019-04-01 16:00:00 19.6 15 Oeste 27 Oeste 0 -- -- 70
2019-04-01 15:00:00 18.9 16 Oeste 25 Oeste 0 -- -- 76
2019-04-01 14:00:00 18.7 14 Sudoeste 22 Sudoeste 0 -- -- 76
2019-04-01 13:00:00 18.7 10 Sudoeste 17 Sudoeste 0 -- -- 78
2019-04-01 12:00:00 17.9 10 Sur 14 Sur 0 -- -- 81
2019-04-01 11:00:00 14.7 5 Este 11 Este 0 -- -- 99
2019-04-01 10:00:00 13.2 7 Este 12 Este 0 -- -- 100
2019-04-01 09:00:00 11 5 Este 9 Este 0 -- -- 100
2019-04-01 08:00:00 10.3 5 Este 9 Este 0 -- -- 99
2019-04-01 07:00:00 10.9 6 Este 9 Este 0 -- -- 98
2019-04-01 06:00:00 11.8 6 Este 10 Este 0 -- -- 97
2019-04-01 05:00:00 11.8 5 Este 10 Este 0 -- -- 97
2019-04-01 04:00:00 11.9 5 Norte 8 Norte 0 -- -- 96
2019-04-01 03:00:00 12.7 5 Sur 11 Sur 0 -- -- 97
2019-04-01 02:00:00 11.5 0 Calma 6 Este 0 -- -- 93
2019-04-01 01:00:00 12.3 2 Este 8 Este 0 -- -- 91
2019-04-01 00:00:00 12.6 4 Este 9 Sudeste 0 -- -- 91
2019-03-31 23:00:00 13.4 4 Sudeste 8 Sudeste 0 -- -- 88
2019-03-31 22:00:00 14.7 3 Sudoeste 5 Nordeste 0 -- -- 90
2019-03-31 21:00:00 15.3 2 Norte 15 Noroeste 0 -- -- 88
2019-03-31 20:00:00 16.7 9 Oeste 14 Oeste 0 -- -- 82
2019-03-31 19:00:00 17.6 5 Oeste 16 Oeste 0 -- -- 76
2019-03-31 18:00:00 17.7 11 Oeste 21 Noroeste 0 -- -- 75
2019-03-31 17:00:00 18.5 12 Oeste 24 Oeste 0 -- -- 70
2019-03-31 16:00:00 19.5 12 Oeste 21 Oeste 0 -- -- 68
2019-03-31 15:00:00 19.1 14 Oeste 25 Sudoeste 0 -- -- 71
2019-03-31 14:00:00 20.1 12 Sudoeste 22 Sudoeste 0 -- -- 68
2019-03-31 13:00:00 18.9 9 Este 18 Sudeste 0 -- -- 63
2019-03-31 12:00:00 17.9 10 Este 17 Este 0 -- -- 68
2019-03-31 11:00:00 16.3 6 Este 17 Sudeste 0 -- -- 79
2019-03-31 10:00:00 14 5 Este 10 Este 0 -- -- 91
2019-03-31 09:00:00 12.3 4 Este 10 Este 0 -- -- 97
2019-03-31 08:00:00 11.7 4 Este 7 Este 0 -- -- 96
2019-03-31 07:00:00 11.7 5 Este 8 Este 0 -- -- 96
2019-03-31 06:00:00 11.4 2 Este 4 Nordeste 0 -- -- 96
2019-03-31 05:00:00 11.2 0 Calma 4 Este 0 -- -- 95
2019-03-31 03:00:00 13 3 Este 5 Nordeste 0 -- -- 91
2019-03-31 01:00:00 13.3 4 Sudeste 6 Sudeste 0 -- -- 92
2019-03-31 00:00:00 12.2 3 Nordeste 8 Nordeste 0 -- -- 94
2019-03-30 23:00:00 11.7 2 Este 7 Este 0 -- -- 91
2019-03-30 22:00:00 13.9 0 Calma 9 Sudoeste 0 -- -- 86
2019-03-30 21:00:00 15.8 4 Sudoeste 14 Sudoeste 0 -- -- 82
2019-03-30 20:00:00 16.3 9 Sudoeste 27 Sudoeste 0 -- -- 80
2019-03-30 19:00:00 17.3 14 Sudoeste 32 Sudoeste 0 -- -- 75
2019-03-30 18:00:00 18.7 14 Sudoeste 28 Oeste 0 -- -- 70
2019-03-30 17:00:00 20.3 15 Oeste 23 Oeste 0 -- -- 59
2019-03-30 16:00:00 20.6 12 Oeste 21 Oeste 0 -- -- 57
2019-03-30 15:00:00 20.1 10 Oeste 17 Oeste 0 -- -- 54
2019-03-30 14:00:00 20 10 Oeste 17 Sudoeste 0 -- -- 52
2019-03-30 13:00:00 19.4 11 Sudoeste 24 Sur 0 -- -- 54
2019-03-30 12:00:00 18.9 12 Sudoeste 21 Sudoeste 0 -- -- 60
2019-03-30 11:00:00 18 10 Este 24 Sudeste 0 -- -- 57
2019-03-30 10:00:00 15.1 12 Este 28 Este 0 -- -- 69
2019-03-30 09:00:00 12.3 9 Este 18 Sudeste 0 -- -- 79
2019-03-30 08:00:00 9.5 7 Este 13 Este 0 -- -- 90
2019-03-30 07:00:00 9.7 7 Este 14 Este 0 -- -- 90
2019-03-30 06:00:00 8.6 6 Este 12 Este 0 -- -- 94
2019-03-30 05:00:00 8.4 6 Este 12 Este 0 -- -- 94
2019-03-30 04:00:00 8.7 6 Este 10 Este 0 -- -- 94
2019-03-30 03:00:00 9.1 5 Este 8 Nordeste 0 -- -- 93
2019-03-30 02:00:00 10.6 4 Este 11 Sudeste 0 -- -- 86
2019-03-30 01:00:00 11.8 5 Sudeste 9 Sudeste 0 -- -- 84
2019-03-30 00:00:00 12.8 4 Este 17 Sur 0 -- -- 83
2019-03-29 23:00:00 15.4 9 Sur 22 Sur 0 -- -- 78
2019-03-29 22:00:00 15.8 10 Sur 21 Sur 0 -- -- 74
2019-03-29 21:00:00 16.2 10 Sudoeste 22 Sudoeste 0 -- -- 76
2019-03-29 20:00:00 16.4 11 Sudoeste 19 Sudoeste 0 -- -- 75
2019-03-29 19:00:00 17.2 8 Sudoeste 23 Sudoeste 0 -- -- 73
2019-03-29 18:00:00 18.9 10 Sur 23 Sudoeste 0 -- -- 66
2019-03-29 17:00:00 18.1 14 Sur 28 Sur 0 -- -- 68
2019-03-29 16:00:00 19.6 13 Sudoeste 25 Oeste 0 -- -- 61
2019-03-29 15:00:00 20.4 10 Sudoeste 20 Sudoeste 0 -- -- 52
2019-03-29 14:00:00 20.5 10 Sur 22 Sur 0 -- -- 44
2019-03-29 13:00:00 19.1 14 Sudoeste 21 Sur 0 -- -- 48
2019-03-29 12:00:00 19.2 8 Sudeste 22 Sudeste 0 -- -- 39
2019-03-29 11:00:00 17.3 10 Sudeste 21 Sudeste 0 -- -- 47
2019-03-29 10:00:00 15.1 7 Sudeste 16 Sudeste 0 -- -- 58
2019-03-29 09:00:00 11.4 7 Este 18 Este 0 -- -- 70
2019-03-29 08:00:00 7.5 8 Este 15 Sudeste 0 -- -- 83
2019-03-29 07:00:00 6.8 8 Este 13 Este 0 -- -- 84
2019-03-29 06:00:00 6.3 6 Este 10 Este 0 -- -- 83
2019-03-29 05:00:00 7.3 6 Este 13 Este 0 -- -- 74
2019-03-29 04:00:00 7.1 6 Este 12 Este 0 -- -- 69
2019-03-29 03:00:00 7.6 6 Este 11 Este 0 -- -- 71
2019-03-29 02:00:00 6.7 6 Este 10 Este 0 -- -- 81
2019-03-29 01:00:00 7.5 5 Este 9 Este 0 -- -- 82
2019-03-29 00:00:00 8.3 6 Este 12 Sudeste 0 -- -- 78
2019-03-28 23:00:00 9.4 5 Este 9 Sudeste 0 -- -- 83
2019-03-28 22:00:00 12.7 5 Sudeste 17 Sur 0 -- -- 70
2019-03-28 21:00:00 14.9 4 Sur 13 Sur 0 -- -- 74
2019-03-28 20:00:00 16.3 6 Sur 23 Sudoeste 0 -- -- 69
2019-03-28 19:00:00 17.5 13 Sudoeste 24 Sudoeste 0 -- -- 67
2019-03-28 18:00:00 19.1 11 Sudoeste 22 Sudoeste 0 -- -- 60
2019-03-28 17:00:00 19.7 13 Oeste 23 Oeste 0 -- -- 55
2019-03-28 16:00:00 20.7 11 Oeste 17 Oeste 0 -- -- 47
2019-03-28 15:00:00 20.3 10 Oeste 21 Sudoeste 0 -- -- 41
2019-03-28 14:00:00 18.9 13 Sudoeste 21 Sudoeste 0 -- -- 49
2019-03-28 13:00:00 20.3 12 Sur 30 Sudeste 0 -- -- 44
2019-03-28 12:00:00 18.7 12 Sur 29 Sudeste 0 -- -- 45
2019-03-28 11:00:00 17.2 13 Sudeste 28 Sudeste 0 -- -- 48
2019-03-28 10:00:00 14.7 11 Sudeste 27 Sudeste 0 -- -- 60
2019-03-28 09:00:00 11.6 11 Este 20 Sudeste 0 -- -- 72
2019-03-28 08:00:00 7.6 8 Este 15 Este 0 -- -- 84
2019-03-28 07:00:00 7.3 7 Este 15 Este 0 -- -- 81
2019-03-28 06:00:00 7.2 6 Este 16 Este 0 -- -- 83
2019-03-28 05:00:00 7.1 7 Este 12 Este 0 -- -- 84
2019-03-28 04:00:00 7.6 6 Este 12 Nordeste 0 -- -- 83
2019-03-28 03:00:00 7.8 6 Este 10 Este 0 -- -- 82
2019-03-28 02:00:00 9.1 6 Este 10 Sudeste 0 -- -- 78
2019-03-28 01:00:00 11.1 5 Este 27 Sur 0 -- -- 72
2019-03-28 00:00:00 14.8 14 Sur 33 Sur 0 -- -- 69
2019-03-27 23:00:00 15 15 Sur 36 Sur 0 -- -- 67
2019-03-27 22:00:00 15.3 20 Sur 36 Sur 0 -- -- 65
2019-03-27 21:00:00 15.7 16 Sur 40 Sur 0 -- -- 64
2019-03-27 20:00:00 16.1 17 Sur 34 Sudoeste 0 -- -- 66
2019-03-27 19:00:00 17.2 19 Sudoeste 35 Sudoeste 0 -- -- 60
2019-03-27 18:00:00 18.5 14 Sur 28 Sur 0 -- -- 56
2019-03-27 17:00:00 19.6 11 Oeste 18 Oeste 0 -- -- 53
2019-03-27 16:00:00 20.4 8 Oeste 17 Sudoeste 0 -- -- 43
2019-03-27 15:00:00 19.7 11 Sudoeste 22 Sur 0 -- -- 43
2019-03-27 14:00:00 19.6 10 Sudoeste 21 Sudoeste 0 -- -- 48
2019-03-27 13:00:00 18.8 10 Sudoeste 30 Sudeste 0 -- -- 46
2019-03-27 12:00:00 18.6 9 Sudeste 30 Sudeste 0 -- -- 42
2019-03-27 11:00:00 18 13 Sudeste 28 Sudeste 0 -- -- 46
2019-03-27 10:00:00 15.3 13 Sudeste 26 Sudeste 0 -- -- 59
2019-03-27 09:00:00 13.2 9 Este 18 Este 0 -- -- 71
2019-03-27 08:00:00 10.3 7 Este 13 Este 0 -- -- 85
2019-03-27 07:00:00 9.8 6 Este 11 Este 0 -- -- 85
2019-03-27 06:00:00 11 5 Este 10 Este 0 -- -- 73
2019-03-27 05:00:00 12.8 6 Este 16 Este 0 -- -- 64
2019-03-27 04:00:00 14.4 10 Sudeste 23 Sudeste 0 -- -- 56
2019-03-27 03:00:00 14.5 8 Sudeste 20 Sudeste 0 -- -- 62
2019-03-27 02:00:00 14.6 8 Sudeste 17 Sur 0 -- -- 77
2019-03-27 01:00:00 14.9 4 Sudeste 13 Sur 0 -- -- 80
2019-03-27 00:00:00 16.2 6 Sur 20 Sur 0 -- -- 77
2019-03-26 23:00:00 16.3 9 Sur 25 Sur 0 -- -- 77
2019-03-26 22:00:00 16.7 13 Sur 27 Sur 0 -- -- 74
2019-03-26 21:00:00 16.9 6 Sur 14 Sur 0 -- -- 78
2019-03-26 20:00:00 17.5 2 Sur 10 Sudoeste 0 -- -- 68
2019-03-26 19:00:00 18.6 3 Sudoeste 17 Sur 0 -- -- 66
2019-03-26 18:00:00 19.7 8 Sudoeste 20 Sudoeste 0 -- -- 62
2019-03-26 17:00:00 20.1 10 Sudoeste 26 Sudoeste 0 -- -- 59
2019-03-26 16:00:00 21.3 15 Oeste 30 Oeste 0 -- -- 56
2019-03-26 15:00:00 22.3 12 Oeste 21 Oeste 0 -- -- 48
2019-03-26 14:00:00 24 8 Sudoeste 17 Sudoeste 0 -- -- 42
2019-03-26 13:00:00 22.7 9 Sudoeste 16 Sudoeste 0 -- -- 43
2019-03-26 12:00:00 22.3 9 Sur 28 Sudeste 0 -- -- 44
2019-03-26 11:00:00 20.3 16 Sudeste 31 Sudeste 0 -- -- 47
2019-03-26 10:00:00 17 10 Este 20 Sudeste 0 -- -- 63
2019-03-26 09:00:00 14.4 7 Este 15 Este 0 -- -- 70
2019-03-26 08:00:00 12.7 8 Este 17 Este 0 -- -- 73
2019-03-26 07:00:00 12.4 9 Este 18 Este 0 -- -- 73
2019-03-26 06:00:00 12.4 10 Este 19 Sudeste 0 -- -- 73
2019-03-26 05:00:00 12.7 10 Este 20 Este 0 -- -- 72
2019-03-26 04:00:00 11.7 7 Este 14 Este 0 -- -- 80
2019-03-26 03:00:00 11.7 7 Este 12 Este 0 -- -- 82
2019-03-26 02:00:00 11 5 Este 9 Este 0 -- -- 88
2019-03-26 01:00:00 11 6 Este 13 Este 0 -- -- 89
2019-03-26 00:00:00 10.8 6 Este 9 Este 0 -- -- 88
2019-03-25 23:00:00 11.4 5 Nordeste 7 Este 0 -- -- 89
2019-03-25 22:00:00 12.3 4 Nordeste 9 Norte 0 -- -- 84
2019-03-25 21:00:00 14.1 3 Norte 6 Noroeste 0 -- -- 79
2019-03-25 20:00:00 18.1 3 Noroeste 11 Noroeste 0 -- -- 69
2019-03-25 19:00:00 20.1 8 Oeste 25 Sudeste 0 -- -- 64
2019-03-25 18:00:00 24.5 14 Sudeste 33 Sudeste 0 -- -- 36
2019-03-25 17:00:00 25.1 16 Sudeste 33 Sudeste 0 -- -- 33
2019-03-25 16:00:00 24.9 17 Sudeste 33 Sur 0 -- -- 32
2019-03-25 15:00:00 24.5 18 Sudeste 39 Sudeste 0 -- -- 33
2019-03-25 14:00:00 24.2 15 Sur 39 Sudeste 0 -- -- 37
2019-03-25 13:00:00 23 16 Sudeste 34 Este 0 -- -- 39
2019-03-25 12:00:00 21.7 16 Sudeste 29 Sur 0 -- -- 42
2019-03-25 11:00:00 19.2 12 Este 24 Sudeste 0 -- -- 53
2019-03-25 10:00:00 15.8 10 Este 19 Sudeste 0 -- -- 63
2019-03-25 09:00:00 12.5 9 Este 17 Este 0 -- -- 76
2019-03-25 08:00:00 10.1 8 Este 14 Este 0 -- -- 82
2019-03-25 07:00:00 9.1 8 Este 13 Este 0 -- -- 85
2019-03-25 06:00:00 9.5 8 Este 14 Este 0 -- -- 84
2019-03-25 05:00:00 10 8 Este 15 Este 0 -- -- 84
2019-03-25 04:00:00 8.7 7 Este 12 Este 0 -- -- 90
2019-03-25 03:00:00 9.3 5 Este 11 Este 0 -- -- 90
2019-03-25 02:00:00 9.5 6 Este 10 Nordeste 0 -- -- 94
2019-03-25 01:00:00 10 6 Este 10 Este 0 -- -- 94
2019-03-25 00:00:00 10.7 5 Este 8 Este 0 -- -- 91